createdAt,value
2019-02-11T00:02:08.582Z,87.40
2019-02-11T00:04:35.536Z,87.30
2019-02-11T00:07:02.476Z,86.60
2019-02-11T00:09:29.447Z,86.80
2019-02-11T00:11:56.393Z,86.10
2019-02-11T00:14:23.327Z,86.10
2019-02-11T00:16:50.308Z,86.30
2019-02-11T00:19:17.265Z,85.90
2019-02-11T00:21:44.211Z,86.20
2019-02-11T00:24:11.179Z,86.60
2019-02-11T00:26:38.117Z,87.20
2019-02-11T00:29:05.049Z,86.60
2019-02-11T00:31:31.995Z,86.90
2019-02-11T00:33:58.935Z,86.40
2019-02-11T00:36:25.883Z,85.90
2019-02-11T00:38:52.846Z,86.00
2019-02-11T00:41:20.377Z,86.10
2019-02-11T00:43:47.346Z,85.90
2019-02-11T00:46:14.305Z,86.00
2019-02-11T00:48:41.241Z,85.80
2019-02-11T00:51:08.177Z,85.40
2019-02-11T00:53:35.164Z,85.20
2019-02-11T00:56:02.116Z,85.00
2019-02-11T00:58:29.091Z,85.00
2019-02-11T01:00:56.056Z,85.50
2019-02-11T01:03:23.000Z,84.00
2019-02-11T01:05:49.956Z,84.50
2019-02-11T01:08:16.901Z,84.20
2019-02-11T01:10:44.546Z,84.10
2019-02-11T01:13:11.963Z,84.10
2019-02-11T01:15:38.877Z,83.90
2019-02-11T01:18:05.835Z,83.70
2019-02-11T01:20:32.783Z,83.90
2019-02-11T01:22:59.756Z,84.00
2019-02-11T01:25:26.702Z,84.10
2019-02-11T01:27:53.669Z,84.50
2019-02-11T01:30:20.635Z,84.10
2019-02-11T01:32:47.586Z,84.10
2019-02-11T01:35:14.517Z,84.60
2019-02-11T01:37:41.481Z,84.50
2019-02-11T01:40:09.822Z,84.70
2019-02-11T01:42:38.044Z,85.30
2019-02-11T01:45:05.120Z,85.40
2019-02-11T01:47:32.065Z,85.70
2019-02-11T01:49:59.003Z,86.40
2019-02-11T01:52:26.045Z,86.10
2019-02-11T01:54:52.984Z,86.60
2019-02-11T01:57:19.928Z,86.50
2019-02-11T01:59:46.889Z,87.00
2019-02-11T02:02:13.823Z,86.90
2019-02-11T02:04:40.751Z,87.90
2019-02-11T02:07:07.717Z,87.50
2019-02-11T02:09:34.664Z,87.70
2019-02-11T02:12:01.610Z,87.20
2019-02-11T02:14:28.763Z,87.20
2019-02-11T02:16:55.696Z,87.20
2019-02-11T02:19:22.658Z,87.30
2019-02-11T02:21:49.632Z,86.90
2019-02-11T02:24:16.580Z,87.10
2019-02-11T02:26:43.527Z,86.70
2019-02-11T02:29:10.488Z,86.80
2019-02-11T02:31:37.435Z,86.50
2019-02-11T02:34:04.374Z,86.70
2019-02-11T02:36:31.328Z,87.20
2019-02-11T02:38:58.272Z,87.10
2019-02-11T02:41:25.239Z,87.10
2019-02-11T02:43:55.457Z,86.90
2019-02-11T02:46:19.566Z,87.60
2019-02-11T02:48:46.514Z,89.10
2019-02-11T02:51:13.475Z,89.90
2019-02-11T02:53:40.436Z,90.40
2019-02-11T02:56:07.395Z,90.50
2019-02-11T02:58:34.355Z,90.80
2019-02-11T03:01:01.295Z,90.50
2019-02-11T03:03:28.270Z,90.70
2019-02-11T03:05:55.230Z,90.70
2019-02-11T03:08:22.148Z,91.00
2019-02-11T03:10:49.105Z,91.50
2019-02-11T03:13:16.081Z,91.40
2019-02-11T03:15:43.026Z,91.40
2019-02-11T03:18:09.964Z,91.60
2019-02-11T03:20:36.929Z,91.70
2019-02-11T03:23:03.884Z,92.00
2019-02-11T03:25:30.814Z,92.60
2019-02-11T03:27:57.771Z,92.50
2019-02-11T03:30:24.754Z,92.80
2019-02-11T03:32:51.706Z,93.20
2019-02-11T03:35:18.676Z,93.40
2019-02-11T03:37:45.618Z,93.70
2019-02-11T03:40:12.551Z,93.70
2019-02-11T03:42:39.513Z,94.10
2019-02-11T03:45:08.412Z,94.90
2019-02-11T03:47:35.356Z,94.40
2019-02-11T03:50:02.406Z,94.40
2019-02-11T03:52:29.371Z,94.60
2019-02-11T03:54:56.331Z,94.90
2019-02-11T03:57:23.282Z,95.30
2019-02-11T03:59:50.240Z,95.20
2019-02-11T04:02:17.168Z,95.30
2019-02-11T04:04:44.117Z,95.70
2019-02-11T04:07:11.089Z,96.00
2019-02-11T04:09:38.028Z,95.80
2019-02-11T04:12:05.007Z,96.00
2019-02-11T04:14:31.967Z,95.80
2019-02-11T04:16:58.888Z,95.80
2019-02-11T04:19:25.853Z,95.90
2019-02-11T04:22:03.115Z,95.90
2019-02-11T04:24:30.019Z,96.10
2019-02-11T04:26:56.967Z,96.10
2019-02-11T04:29:23.896Z,96.00
2019-02-11T04:31:50.858Z,95.90
2019-02-11T04:34:17.809Z,96.00
2019-02-11T04:36:44.751Z,95.90
2019-02-11T04:39:11.720Z,95.90
2019-02-11T04:41:38.675Z,95.80
2019-02-11T04:44:05.618Z,95.70
2019-02-11T04:46:32.949Z,95.60
2019-02-11T04:48:59.928Z,95.50
2019-02-11T04:51:26.859Z,95.20
2019-02-11T04:53:53.809Z,95.40
2019-02-11T04:56:20.759Z,95.40
2019-02-11T04:58:47.693Z,95.50
2019-02-11T05:01:14.668Z,95.80
2019-02-11T05:03:41.664Z,95.60
2019-02-11T05:06:08.611Z,95.50
2019-02-11T05:08:35.588Z,95.50
2019-02-11T05:11:02.524Z,95.80
2019-02-11T05:13:29.471Z,95.70
2019-02-11T05:15:56.456Z,95.80
2019-02-11T05:18:23.405Z,95.70
2019-02-11T05:20:50.341Z,96.00
2019-02-11T05:23:17.300Z,95.90
2019-02-11T05:25:44.229Z,95.60
2019-02-11T05:28:11.171Z,95.80
2019-02-11T05:30:38.149Z,95.70
2019-02-11T05:33:05.256Z,95.60
2019-02-11T05:35:32.197Z,96.40
2019-02-11T05:37:59.242Z,95.70
2019-02-11T05:40:26.248Z,95.40
2019-02-11T05:42:53.279Z,95.20
2019-02-11T05:45:20.258Z,95.60
2019-02-11T05:47:48.463Z,95.60
2019-02-11T05:50:15.405Z,95.50
2019-02-11T05:52:42.379Z,95.10
2019-02-11T05:55:09.369Z,94.90
2019-02-11T05:57:36.292Z,95.50
2019-02-11T06:00:03.436Z,95.00
2019-02-11T06:02:30.376Z,94.50
2019-02-11T06:04:57.312Z,94.70
2019-02-11T06:07:24.261Z,94.70
2019-02-11T06:09:51.217Z,94.40
2019-02-11T06:12:18.166Z,93.90
2019-02-11T06:14:45.130Z,94.30
2019-02-11T06:17:12.093Z,94.20
2019-02-11T06:19:39.041Z,93.70
2019-02-11T06:22:06.028Z,94.00
2019-02-11T06:24:32.984Z,94.00
2019-02-11T06:26:59.922Z,93.70
2019-02-11T06:29:26.894Z,93.70
2019-02-11T06:31:53.844Z,93.80
2019-02-11T06:34:20.784Z,93.80
2019-02-11T06:36:47.748Z,93.90
2019-02-11T06:39:14.694Z,93.40
2019-02-11T06:41:41.647Z,93.60
2019-02-11T06:44:08.630Z,93.20
2019-02-11T06:46:35.563Z,93.30
2019-02-11T06:49:03.035Z,93.10
2019-02-11T06:51:30.005Z,93.10
2019-02-11T06:53:56.957Z,93.00
2019-02-11T06:56:23.903Z,92.70
2019-02-11T06:58:50.840Z,92.80
2019-02-11T07:01:17.816Z,92.60
2019-02-11T07:03:44.728Z,92.60
2019-02-11T07:06:11.696Z,92.70
2019-02-11T07:08:38.646Z,92.90
2019-02-11T07:11:05.594Z,92.80
2019-02-11T07:13:33.044Z,92.90
2019-02-11T07:16:00.013Z,93.20
2019-02-11T07:18:26.963Z,93.00
2019-02-11T07:20:53.945Z,92.90
2019-02-11T07:23:20.909Z,93.10
2019-02-11T07:25:47.846Z,93.60
2019-02-11T07:28:14.838Z,93.40
2019-02-11T07:30:41.782Z,93.10
2019-02-11T07:33:08.740Z,93.10
2019-02-11T07:35:35.711Z,92.90
2019-02-11T07:38:02.647Z,92.60
2019-02-11T07:40:29.600Z,92.80
2019-02-11T07:43:02.899Z,92.90
2019-02-11T07:45:35.596Z,92.70
2019-02-11T07:48:02.554Z,92.80
2019-02-11T07:50:29.791Z,92.70
2019-02-11T07:52:56.725Z,92.80
2019-02-11T07:55:23.711Z,92.70
2019-02-11T07:57:50.686Z,92.10
2019-02-11T08:00:17.611Z,92.00
2019-02-11T08:02:44.596Z,91.90
2019-02-11T08:05:11.690Z,91.70
2019-02-11T08:07:38.636Z,91.30
2019-02-11T08:10:05.671Z,91.20
2019-02-11T08:12:32.646Z,91.00
2019-02-11T08:14:59.609Z,91.30
2019-02-11T08:17:26.550Z,91.10
2019-02-11T08:19:53.519Z,91.10
2019-02-11T08:22:20.455Z,91.10
2019-02-11T08:24:47.400Z,90.60
2019-02-11T08:27:14.341Z,90.60
2019-02-11T08:29:41.288Z,90.10
2019-02-11T08:32:08.213Z,90.30
2019-02-11T08:34:35.177Z,90.20
2019-02-11T08:37:02.129Z,90.30
2019-02-11T08:39:29.077Z,90.40
2019-02-11T08:41:56.153Z,90.30
2019-02-11T08:44:23.093Z,90.00
2019-02-11T08:46:50.108Z,89.40
2019-02-11T08:49:17.057Z,88.80
2019-02-11T08:51:44.266Z,88.60
2019-02-11T08:54:12.113Z,89.20
2019-02-11T08:56:40.759Z,88.40
2019-02-11T08:59:08.942Z,88.40
2019-02-11T09:01:35.888Z,88.00
2019-02-11T09:04:02.857Z,88.40
2019-02-11T09:06:29.919Z,86.40
2019-02-11T09:08:56.845Z,85.60
2019-02-11T09:11:23.939Z,85.30
2019-02-11T09:13:50.895Z,85.60
2019-02-11T09:16:17.838Z,85.30
2019-02-11T09:18:44.921Z,85.50
2019-02-11T09:21:11.869Z,85.50
2019-02-11T09:23:38.815Z,85.00
2019-02-11T09:26:05.882Z,84.40
2019-02-11T09:28:32.847Z,84.40
2019-02-11T09:30:59.800Z,83.90
2019-02-11T09:33:26.754Z,84.10
2019-02-11T09:35:53.692Z,83.60
2019-02-11T09:38:20.626Z,83.80
2019-02-11T09:40:47.594Z,82.90
2019-02-11T09:43:14.539Z,83.00
2019-02-11T09:45:41.481Z,83.00
2019-02-11T09:48:08.426Z,83.20
2019-02-11T09:50:39.848Z,82.40
2019-02-11T09:53:07.992Z,82.90
2019-02-11T09:55:34.976Z,82.80
2019-02-11T09:58:01.920Z,82.20
2019-02-11T10:00:28.893Z,82.50
2019-02-11T10:02:55.831Z,82.50
2019-02-11T10:05:22.858Z,83.40
2019-02-11T10:07:49.846Z,82.30
2019-02-11T10:10:16.891Z,82.80
2019-02-11T10:12:43.903Z,82.10
2019-02-11T10:15:10.876Z,82.70
2019-02-11T10:17:37.850Z,82.30
2019-02-11T10:20:05.780Z,82.20
2019-02-11T10:22:32.738Z,82.50
2019-02-11T10:24:59.707Z,81.60
2019-02-11T10:27:26.672Z,81.60
2019-02-11T10:29:53.632Z,80.60
2019-02-11T10:32:20.589Z,81.00
2019-02-11T10:34:47.531Z,81.10
2019-02-11T10:37:14.488Z,80.20
2019-02-11T10:39:41.481Z,78.70
2019-02-11T10:42:08.420Z,78.40
2019-02-11T10:44:35.399Z,77.30
2019-02-11T10:47:02.378Z,77.20
2019-02-11T10:49:29.323Z,77.90
2019-02-11T10:51:56.292Z,78.30
2019-02-11T10:54:24.745Z,77.90
2019-02-11T10:56:51.699Z,79.20
2019-02-11T10:59:18.672Z,78.90
2019-02-11T11:01:45.837Z,78.60
2019-02-11T11:04:12.769Z,76.30
2019-02-11T11:06:39.716Z,76.20
2019-02-11T11:09:07.669Z,75.60
2019-02-11T11:11:34.623Z,74.00
2019-02-11T11:14:01.557Z,71.70
2019-02-11T11:16:29.900Z,71.80
2019-02-11T11:18:55.481Z,72.60
2019-02-11T11:21:22.425Z,73.70
2019-02-11T11:23:49.405Z,75.50
2019-02-11T11:26:16.370Z,76.70
2019-02-11T11:28:43.327Z,77.50
2019-02-11T11:31:10.340Z,77.90
2019-02-11T11:33:37.315Z,77.90
2019-02-11T11:36:04.293Z,78.50
2019-02-11T11:38:31.278Z,79.40
2019-02-11T11:40:58.229Z,79.10
2019-02-11T11:43:25.257Z,78.70
2019-02-11T11:45:52.244Z,78.80
2019-02-11T11:48:19.173Z,78.70
2019-02-11T11:50:46.128Z,79.20
2019-02-11T11:53:13.122Z,78.50
2019-02-11T11:55:41.261Z,78.70
2019-02-11T11:58:08.873Z,78.20
2019-02-11T12:00:35.838Z,78.90
2019-02-11T12:03:05.197Z,79.00
2019-02-11T12:05:31.026Z,79.10
2019-02-11T12:07:59.231Z,78.70
2019-02-11T12:10:26.290Z,79.20
2019-02-11T12:12:53.231Z,78.10
2019-02-11T12:15:23.207Z,78.10
2019-02-11T12:17:50.443Z,78.50
2019-02-11T12:20:17.444Z,78.50
2019-02-11T12:22:44.536Z,77.00
2019-02-11T12:25:12.219Z,76.40
2019-02-11T12:27:39.321Z,74.90
2019-02-11T12:30:11.203Z,74.60
2019-02-11T12:32:39.620Z,74.80
2019-02-11T12:35:06.572Z,74.80
2019-02-11T12:37:33.626Z,73.80
2019-02-11T12:40:00.604Z,72.70
2019-02-11T12:42:28.151Z,73.30
2019-02-11T12:44:56.423Z,71.70
2019-02-11T12:47:23.829Z,69.60
2019-02-11T12:49:51.831Z,70.50
2019-02-11T12:52:19.675Z,70.50
2019-02-11T12:54:47.591Z,70.90
2019-02-11T12:57:16.014Z,70.60
2019-02-11T12:59:43.302Z,71.10
2019-02-11T13:02:10.232Z,71.30
2019-02-11T13:04:37.168Z,71.40
2019-02-11T13:07:04.131Z,70.80
2019-02-11T13:09:31.079Z,70.60
2019-02-11T13:11:58.029Z,70.60
2019-02-11T13:14:24.975Z,71.20
2019-02-11T13:16:51.921Z,70.50
2019-02-11T13:19:18.863Z,69.60
2019-02-11T13:21:45.821Z,69.80
2019-02-11T13:24:12.753Z,69.80
2019-02-11T13:26:39.694Z,69.50
2019-02-11T13:29:06.660Z,68.70
2019-02-11T13:31:33.778Z,66.80
2019-02-11T13:34:00.737Z,65.80
2019-02-11T13:36:27.715Z,64.10
2019-02-11T13:38:54.855Z,64.10
2019-02-11T13:41:21.666Z,63.00
2019-02-11T13:43:49.765Z,61.90
2019-02-11T13:46:16.711Z,61.50
2019-02-11T13:48:46.977Z,62.00
2019-02-11T13:51:13.965Z,64.80
2019-02-11T13:53:43.825Z,66.50
2019-02-11T13:56:08.082Z,68.50
2019-02-11T13:58:35.490Z,68.80
2019-02-11T14:01:02.272Z,69.90
2019-02-11T14:03:29.199Z,69.50
2019-02-11T14:05:56.171Z,69.60
2019-02-11T14:08:23.107Z,69.90
2019-02-11T14:10:50.051Z,70.40
2019-02-11T14:13:17.014Z,70.60
2019-02-11T14:15:43.966Z,71.30
2019-02-11T14:18:14.278Z,71.00
2019-02-11T14:20:38.491Z,72.60
2019-02-11T14:23:05.645Z,71.10
2019-02-11T14:25:42.259Z,71.30
2019-02-11T14:27:59.599Z,70.00
2019-02-11T14:30:26.546Z,70.80
2019-02-11T14:32:53.489Z,70.90
2019-02-11T14:35:20.499Z,70.40
2019-02-11T14:37:47.403Z,69.30
2019-02-11T14:40:14.367Z,69.60
2019-02-11T14:42:41.328Z,70.10
2019-02-11T14:45:08.849Z,70.50
2019-02-11T14:47:35.786Z,69.50
2019-02-11T14:50:02.960Z,70.60
2019-02-11T14:52:29.889Z,71.00
2019-02-11T14:54:56.840Z,72.20
2019-02-11T14:57:23.800Z,72.20
2019-02-11T14:59:51.977Z,72.90
2019-02-11T15:02:18.971Z,72.50
2019-02-11T15:04:45.939Z,71.40
2019-02-11T15:07:12.876Z,71.10
2019-02-11T15:09:40.150Z,71.30
2019-02-11T15:12:07.084Z,71.20
2019-02-11T15:14:34.767Z,71.10
2019-02-11T15:17:01.751Z,70.70
2019-02-11T15:19:28.706Z,70.70
2019-02-11T15:21:55.663Z,71.20
2019-02-11T15:24:22.601Z,71.80
2019-02-11T15:26:49.555Z,72.90
2019-02-11T15:29:16.491Z,73.20
2019-02-11T15:31:43.433Z,73.40
2019-02-11T15:34:10.376Z,74.00
2019-02-11T15:36:37.321Z,74.50
2019-02-11T15:39:04.448Z,74.20
2019-02-11T15:41:31.404Z,74.40
2019-02-11T15:43:58.346Z,74.70
2019-02-11T15:46:25.288Z,75.00
2019-02-11T15:48:52.240Z,75.10
2019-02-11T15:51:19.176Z,73.90
2019-02-11T15:53:46.124Z,74.00
2019-02-11T15:56:13.096Z,73.70
2019-02-11T15:58:40.036Z,73.20
2019-02-11T16:01:09.225Z,73.50
2019-02-11T16:03:36.180Z,74.00
2019-02-11T16:06:10.279Z,74.50
2019-02-11T16:08:30.068Z,74.60
2019-02-11T16:11:01.354Z,75.00
2019-02-11T16:13:24.439Z,75.20
2019-02-11T16:15:51.379Z,75.60
2019-02-11T16:18:18.392Z,76.30
2019-02-11T16:20:45.333Z,76.90
2019-02-11T16:23:12.296Z,77.60
2019-02-11T16:25:39.247Z,77.80
2019-02-11T16:28:06.205Z,78.40
2019-02-11T16:30:33.160Z,80.20
2019-02-11T16:33:01.510Z,82.00
2019-02-11T16:35:27.136Z,83.80
2019-02-11T16:37:54.149Z,85.70
2019-02-11T16:40:22.989Z,87.70
2019-02-11T16:42:50.123Z,88.60
2019-02-11T16:45:17.004Z,89.30
2019-02-11T16:47:43.949Z,89.90
2019-02-11T16:50:10.906Z,89.60
2019-02-11T16:52:37.855Z,89.70
2019-02-11T16:55:05.028Z,90.80
2019-02-11T16:57:31.988Z,89.30
2019-02-11T16:59:58.927Z,89.10
2019-02-11T17:02:26.671Z,88.80
2019-02-11T17:04:53.612Z,87.90
2019-02-11T17:07:20.557Z,87.30
2019-02-11T17:09:47.525Z,86.40
2019-02-11T17:12:14.454Z,85.80
2019-02-11T17:14:41.394Z,85.70
2019-02-11T17:17:08.369Z,85.50
2019-02-11T17:19:35.314Z,85.80
2019-02-11T17:22:03.196Z,85.00
2019-02-11T17:24:31.160Z,84.90
2019-02-11T17:26:59.185Z,84.70
2019-02-11T17:29:26.634Z,84.90
2019-02-11T17:31:53.449Z,85.00
2019-02-11T17:34:20.385Z,84.90
2019-02-11T17:36:51.582Z,84.60
2019-02-11T17:39:19.063Z,84.60
2019-02-11T17:41:46.534Z,84.90
2019-02-11T17:44:14.846Z,84.60
2019-02-11T17:46:41.764Z,84.40
2019-02-11T17:49:17.447Z,83.80
2019-02-11T17:51:36.214Z,83.90
2019-02-11T17:54:03.728Z,83.50
2019-02-11T17:56:30.686Z,83.40
2019-02-11T17:58:57.613Z,83.30
2019-02-11T18:01:24.563Z,83.60
2019-02-11T18:03:52.188Z,83.80
2019-02-11T18:06:19.203Z,83.60
2019-02-11T18:08:46.165Z,83.80
2019-02-11T18:11:13.143Z,83.90
2019-02-11T18:13:40.125Z,83.80
2019-02-11T18:16:08.153Z,84.00
2019-02-11T18:18:35.111Z,83.50
2019-02-11T18:21:02.056Z,83.60
2019-02-11T18:23:29.025Z,83.50
2019-02-11T18:25:55.967Z,83.50
2019-02-11T18:28:22.908Z,83.20
2019-02-11T18:30:49.881Z,82.70
2019-02-11T18:33:16.823Z,82.70
2019-02-11T18:35:43.880Z,82.80
2019-02-11T18:38:10.813Z,82.40
2019-02-11T18:40:37.778Z,82.40
2019-02-11T18:43:05.380Z,82.30
2019-02-11T18:45:32.356Z,82.60
2019-02-11T18:47:59.312Z,82.90
2019-02-11T18:50:26.736Z,82.80
2019-02-11T18:52:54.429Z,82.60
2019-02-11T18:55:22.659Z,82.80
2019-02-11T18:57:49.397Z,83.20
2019-02-11T19:00:17.012Z,84.20
2019-02-11T19:02:43.977Z,84.00
2019-02-11T19:05:11.437Z,84.60
2019-02-11T19:07:38.456Z,84.90
2019-02-11T19:10:06.161Z,85.10
2019-02-11T19:12:33.136Z,85.40
2019-02-11T19:15:00.151Z,85.50
2019-02-11T19:17:27.052Z,85.70
2019-02-11T19:19:54.056Z,86.20
2019-02-11T19:22:22.338Z,86.30
2019-02-11T19:24:47.998Z,85.70
2019-02-11T19:27:15.107Z,85.90
2019-02-11T19:29:42.128Z,85.90
2019-02-11T19:32:09.098Z,85.50
2019-02-11T19:34:36.709Z,86.10
2019-02-11T19:37:04.794Z,86.70
2019-02-11T19:39:32.095Z,87.40
2019-02-11T19:42:01.590Z,87.80
2019-02-11T19:44:28.048Z,87.20
2019-02-11T19:46:55.822Z,88.60
2019-02-11T19:49:23.533Z,90.70
2019-02-11T19:51:50.551Z,91.10
2019-02-11T19:54:17.591Z,91.60
2019-02-11T19:56:44.563Z,91.10
2019-02-11T19:59:11.520Z,91.50
2019-02-11T20:01:39.111Z,91.00
2019-02-11T20:04:07.696Z,90.80
2019-02-11T20:06:33.534Z,90.80
2019-02-11T20:09:00.480Z,90.70
2019-02-11T20:11:28.133Z,90.40
2019-02-11T20:13:55.321Z,90.60
2019-02-11T20:16:22.529Z,90.50
2019-02-11T20:18:49.513Z,90.30
2019-02-11T20:21:16.811Z,90.30
2019-02-11T20:23:43.773Z,89.80
2019-02-11T20:26:11.976Z,89.90
2019-02-11T20:28:39.106Z,90.00
2019-02-11T20:31:06.480Z,90.10
2019-02-11T20:33:33.468Z,89.50
2019-02-11T20:36:00.821Z,89.20
2019-02-11T20:38:29.428Z,89.90
2019-02-11T20:40:57.289Z,89.10
2019-02-11T20:43:24.340Z,89.20
2019-02-11T20:45:51.276Z,88.90
2019-02-11T20:48:18.223Z,89.10
2019-02-11T20:50:45.235Z,89.30
2019-02-11T20:53:12.175Z,89.80
2019-02-11T20:55:39.200Z,89.50
2019-02-11T20:58:06.154Z,90.00
2019-02-11T21:00:33.108Z,89.80
2019-02-11T21:03:07.940Z,90.40
2019-02-11T21:05:26.992Z,90.20
2019-02-11T21:07:54.475Z,90.40
2019-02-11T21:10:21.507Z,90.50
2019-02-11T21:12:48.471Z,90.70
2019-02-11T21:15:15.514Z,91.00
2019-02-11T21:17:42.444Z,91.20
2019-02-11T21:20:17.432Z,91.30
2019-02-11T21:22:39.197Z,91.20
2019-02-11T21:25:06.593Z,91.50
2019-02-11T21:27:33.543Z,91.50
2019-02-11T21:30:00.484Z,91.80
2019-02-11T21:32:27.439Z,92.20
2019-02-11T21:34:54.387Z,92.40
2019-02-11T21:37:21.342Z,92.60
2019-02-11T21:39:48.271Z,92.70
2019-02-11T21:42:15.225Z,92.30
2019-02-11T21:44:42.167Z,92.10
2019-02-11T21:47:09.103Z,91.90
2019-02-11T21:49:36.085Z,91.80
2019-02-11T21:52:03.055Z,91.80
2019-02-11T21:54:30.068Z,91.90
2019-02-11T21:56:57.036Z,91.70
2019-02-11T21:59:23.975Z,91.70
2019-02-11T22:01:50.887Z,91.80
2019-02-11T22:04:17.837Z,91.90
2019-02-11T22:06:44.772Z,91.80
2019-02-11T22:09:12.287Z,91.70
2019-02-11T22:11:39.270Z,91.40
2019-02-11T22:14:06.208Z,91.50
2019-02-11T22:16:33.160Z,91.60
2019-02-11T22:19:00.124Z,91.70
2019-02-11T22:21:27.056Z,91.80
2019-02-11T22:23:53.997Z,92.10
2019-02-11T22:26:20.955Z,92.40
2019-02-11T22:28:47.893Z,92.40
2019-02-11T22:31:14.843Z,92.20
2019-02-11T22:33:41.837Z,92.00
2019-02-11T22:36:08.776Z,91.80
2019-02-11T22:38:35.732Z,91.70
2019-02-11T22:41:02.691Z,91.70
2019-02-11T22:43:29.649Z,91.50
2019-02-11T22:45:56.576Z,91.50
2019-02-11T22:48:23.537Z,91.50
2019-02-11T22:50:52.208Z,91.50
2019-02-11T22:53:19.500Z,91.40
2019-02-11T22:55:46.468Z,91.40
2019-02-11T22:58:13.984Z,91.40
2019-02-11T23:00:45.779Z,91.20
2019-02-11T23:03:12.940Z,91.00
2019-02-11T23:05:39.923Z,91.00
2019-02-11T23:08:06.884Z,91.00
2019-02-11T23:10:35.457Z,91.00
2019-02-11T23:13:02.403Z,91.10
2019-02-11T23:15:29.365Z,91.10
2019-02-11T23:17:56.339Z,91.10
2019-02-11T23:20:23.272Z,91.10
2019-02-11T23:22:50.264Z,91.00
2019-02-11T23:25:17.212Z,90.80
2019-02-11T23:27:44.157Z,91.30
2019-02-11T23:30:13.567Z,91.20
2019-02-11T23:32:38.091Z,92.20
2019-02-11T23:35:05.106Z,92.40
2019-02-11T23:37:32.040Z,92.50
2019-02-11T23:39:59.018Z,92.70
2019-02-11T23:42:25.951Z,92.50
2019-02-11T23:44:52.887Z,92.50
2019-02-11T23:47:19.863Z,92.50
2019-02-11T23:49:46.805Z,92.50
2019-02-11T23:52:13.767Z,92.50
2019-02-11T23:54:40.727Z,92.60
2019-02-11T23:57:07.669Z,92.80
2019-02-11T23:59:34.603Z,93.00
